createdAt,value
2023-08-17T00:01:43.284Z,2.75
2023-08-17T00:04:10.824Z,3.25
2023-08-17T00:06:38.359Z,2.95
2023-08-17T00:09:08.123Z,2.80
2023-08-17T00:11:35.808Z,2.75
2023-08-17T00:14:03.243Z,3.20
2023-08-17T00:16:30.766Z,3.05
2023-08-17T00:18:58.332Z,2.95
2023-08-17T00:21:25.935Z,3.40
2023-08-17T00:23:53.366Z,2.50
2023-08-17T00:26:22.175Z,3.15
2023-08-17T00:28:49.675Z,3.25
2023-08-17T00:31:17.146Z,3.58
2023-08-17T00:33:44.602Z,3.10
2023-08-17T00:36:12.083Z,3.35
2023-08-17T00:38:39.628Z,3.47
2023-08-17T00:41:07.079Z,3.20
2023-08-17T00:43:35.890Z,2.83
2023-08-17T00:46:03.447Z,2.95
2023-08-17T00:48:32.404Z,3.45
2023-08-17T00:51:00.023Z,3.20
2023-08-17T00:53:28.798Z,3.03
2023-08-17T00:55:56.395Z,2.90
2023-08-17T00:58:23.990Z,3.30
2023-08-17T01:00:52.791Z,3.17
2023-08-17T01:03:20.943Z,3.55
2023-08-17T01:05:48.530Z,3.38
2023-08-17T01:08:15.997Z,3.13
2023-08-17T01:10:50.264Z,3.17
2023-08-17T01:13:20.226Z,3.15
2023-08-17T01:15:50.021Z,3.47
2023-08-17T01:18:23.143Z,3.47
2023-08-17T01:20:51.370Z,3.50
2023-08-17T01:23:20.260Z,3.58
2023-08-17T01:25:49.066Z,3.58
2023-08-17T01:28:16.690Z,3.55
2023-08-17T01:30:48.951Z,3.42
2023-08-17T01:33:21.150Z,3.58
2023-08-17T01:35:51.945Z,4.22
2023-08-17T01:38:23.545Z,3.40
2023-08-17T01:40:52.461Z,3.88
2023-08-17T01:43:20.435Z,3.65
2023-08-17T01:45:47.914Z,3.53
2023-08-17T01:48:15.437Z,3.60
2023-08-17T01:50:42.981Z,2.78
2023-08-17T01:53:10.960Z,3.75
2023-08-17T01:55:40.149Z,3.03
2023-08-17T01:58:07.634Z,3.60
2023-08-17T02:00:35.115Z,3.17
2023-08-17T02:03:02.607Z,3.60
2023-08-17T02:05:30.394Z,3.25
2023-08-17T02:07:57.929Z,3.55
2023-08-17T02:10:25.424Z,3.63
2023-08-17T02:12:59.092Z,3.45
2023-08-17T02:15:29.948Z,4.10
2023-08-17T02:17:58.431Z,3.78
2023-08-17T02:20:25.902Z,3.30
2023-08-17T02:22:53.394Z,3.40
2023-08-17T02:25:20.920Z,3.63
2023-08-17T02:27:48.501Z,3.72
2023-08-17T02:30:17.392Z,3.50
2023-08-17T02:32:44.958Z,3.78
2023-08-17T02:35:12.466Z,3.80
2023-08-17T02:37:39.928Z,3.53
2023-08-17T02:40:08.778Z,3.80
2023-08-17T02:42:36.269Z,3.72
2023-08-17T02:45:03.827Z,3.03
2023-08-17T02:47:32.691Z,3.35
2023-08-17T02:50:00.346Z,3.28
2023-08-17T02:52:28.013Z,3.58
2023-08-17T02:54:55.520Z,3.80
2023-08-17T02:57:23.025Z,3.13
2023-08-17T02:59:50.551Z,4.22
2023-08-17T03:02:18.079Z,3.60
2023-08-17T03:04:46.870Z,3.33
2023-08-17T03:07:14.329Z,3.60
2023-08-17T03:09:41.872Z,3.63
2023-08-17T03:12:09.425Z,3.45
2023-08-17T03:14:36.901Z,3.25
2023-08-17T03:17:04.789Z,3.00
2023-08-17T03:19:32.361Z,3.40
2023-08-17T03:22:01.260Z,3.50
2023-08-17T03:24:28.719Z,3.38
2023-08-17T03:26:56.224Z,3.53
2023-08-17T03:29:23.699Z,3.67
2023-08-17T03:31:51.696Z,3.25
2023-08-17T03:34:19.190Z,3.38
2023-08-17T03:36:46.666Z,3.42
2023-08-17T03:39:15.900Z,3.30
2023-08-17T03:41:43.748Z,2.88
2023-08-17T03:44:11.265Z,3.10
2023-08-17T03:46:38.745Z,2.85
2023-08-17T03:49:06.218Z,3.40
2023-08-17T03:51:33.718Z,3.10
2023-08-17T03:54:01.178Z,3.17
2023-08-17T03:56:29.992Z,3.80
2023-08-17T03:58:57.486Z,2.95
2023-08-17T04:01:24.994Z,3.70
2023-08-17T04:03:52.487Z,3.67
2023-08-17T04:06:20.014Z,3.45
2023-08-17T04:08:47.664Z,3.45
2023-08-17T04:11:15.136Z,3.90
2023-08-17T04:13:43.920Z,3.00
2023-08-17T04:16:11.370Z,3.50
2023-08-17T04:18:38.867Z,2.97
2023-08-17T04:21:06.453Z,3.10
2023-08-17T04:23:33.932Z,3.33
2023-08-17T04:26:01.422Z,3.00
2023-08-17T04:28:28.894Z,3.13
2023-08-17T04:30:57.828Z,2.58
2023-08-17T04:33:25.319Z,3.20
2023-08-17T04:35:52.774Z,2.90
2023-08-17T04:38:20.298Z,2.90
2023-08-17T04:40:48.005Z,2.70
2023-08-17T04:43:15.580Z,2.65
2023-08-17T04:45:43.106Z,3.08
2023-08-17T04:48:11.950Z,2.58
2023-08-17T04:50:39.451Z,2.72
2023-08-17T04:53:06.962Z,3.20
2023-08-17T04:55:34.636Z,2.80
2023-08-17T04:58:02.252Z,2.65
2023-08-17T05:00:29.836Z,2.92
2023-08-17T05:02:57.366Z,2.83
2023-08-17T05:05:26.663Z,3.20
2023-08-17T05:07:54.794Z,2.97
2023-08-17T05:10:22.422Z,3.15
2023-08-17T05:12:50.024Z,2.80
2023-08-17T05:15:17.716Z,2.63
2023-08-17T05:17:45.289Z,3.00
2023-08-17T05:20:13.901Z,2.45
2023-08-17T05:22:42.762Z,2.97
2023-08-17T05:25:10.711Z,2.83
2023-08-17T05:27:38.135Z,2.80
2023-08-17T05:30:06.805Z,2.60
2023-08-17T05:32:34.347Z,2.60
2023-08-17T05:35:01.989Z,2.53
2023-08-17T05:37:29.499Z,2.75
2023-08-17T05:39:58.307Z,2.42
2023-08-17T05:42:25.941Z,2.20
2023-08-17T05:44:53.423Z,2.17
2023-08-17T05:47:20.981Z,2.30
2023-08-17T05:49:48.458Z,2.50
2023-08-17T05:52:16.011Z,2.63
2023-08-17T05:54:43.813Z,2.33
2023-08-17T05:57:12.627Z,2.83
2023-08-17T05:59:40.118Z,2.63
2023-08-17T06:02:07.726Z,2.67
2023-08-17T06:04:35.279Z,2.80
2023-08-17T06:07:02.772Z,2.75
2023-08-17T06:09:30.256Z,2.55
2023-08-17T06:11:57.814Z,2.75
2023-08-17T06:14:26.695Z,2.60
2023-08-17T06:16:54.282Z,3.47
2023-08-17T06:19:21.761Z,3.70
2023-08-17T06:21:49.262Z,3.25
2023-08-17T06:24:16.761Z,2.95
2023-08-17T06:26:45.330Z,3.20
2023-08-17T06:29:12.800Z,3.15
2023-08-17T06:31:41.640Z,3.65
2023-08-17T06:34:09.104Z,3.13
2023-08-17T06:36:40.373Z,3.80
2023-08-17T06:39:08.176Z,3.58
2023-08-17T06:41:35.626Z,4.07
2023-08-17T06:44:03.096Z,3.80
2023-08-17T06:46:31.075Z,3.97
2023-08-17T06:48:59.870Z,3.33
2023-08-17T06:51:27.451Z,3.70
2023-08-17T06:53:54.944Z,3.55
2023-08-17T06:56:23.864Z,4.00
2023-08-17T06:58:52.281Z,4.10
2023-08-17T07:01:19.801Z,3.72
2023-08-17T07:03:47.326Z,3.60
2023-08-17T07:06:16.205Z,4.10
2023-08-17T07:08:43.727Z,3.50
2023-08-17T07:11:12.033Z,3.13
2023-08-17T07:13:39.525Z,3.45
2023-08-17T07:16:07.312Z,3.85
2023-08-17T07:18:34.804Z,3.80
2023-08-17T07:21:02.321Z,2.97
2023-08-17T07:23:31.255Z,3.28
2023-08-17T07:25:58.764Z,2.70
2023-08-17T07:28:26.282Z,3.42
2023-08-17T07:30:53.741Z,3.22
2023-08-17T07:33:21.280Z,3.40
2023-08-17T07:35:48.792Z,3.55
2023-08-17T07:38:16.439Z,3.30
2023-08-17T07:40:45.287Z,3.08
2023-08-17T07:43:12.777Z,3.30
2023-08-17T07:45:40.347Z,3.72
2023-08-17T07:48:08.357Z,3.13
2023-08-17T07:50:36.058Z,2.97
2023-08-17T07:53:03.534Z,2.72
2023-08-17T07:55:31.026Z,3.20
2023-08-17T07:57:58.853Z,2.30
2023-08-17T08:00:26.401Z,2.88
2023-08-17T08:02:53.957Z,3.28
2023-08-17T08:05:21.528Z,2.90
2023-08-17T08:07:49.093Z,2.70
2023-08-17T08:10:16.853Z,3.13
2023-08-17T08:12:44.349Z,2.83
2023-08-17T08:15:13.419Z,3.15
2023-08-17T08:17:41.619Z,2.85
2023-08-17T08:20:09.930Z,3.33
2023-08-17T08:22:37.419Z,3.30
2023-08-17T08:25:05.519Z,3.67
2023-08-17T08:27:33.000Z,3.22
2023-08-17T08:30:00.454Z,2.55
2023-08-17T08:32:30.852Z,2.58
2023-08-17T08:34:58.533Z,3.10
2023-08-17T08:37:26.321Z,3.35
2023-08-17T08:39:55.819Z,3.00
2023-08-17T08:42:25.162Z,2.95
2023-08-17T08:44:52.664Z,3.10
2023-08-17T08:47:20.310Z,2.90
2023-08-17T08:49:52.535Z,3.30
2023-08-17T08:52:21.936Z,3.20
2023-08-17T08:54:51.973Z,3.20
2023-08-17T08:57:19.772Z,3.20
2023-08-17T08:59:47.881Z,3.50
2023-08-17T09:02:16.794Z,3.20
2023-08-17T09:04:45.878Z,3.00
2023-08-17T09:07:15.640Z,3.00
2023-08-17T09:09:43.921Z,3.53
2023-08-17T09:12:11.460Z,3.33
2023-08-17T09:14:39.350Z,3.10
2023-08-17T09:17:06.834Z,4.05
2023-08-17T09:19:34.624Z,2.80
2023-08-17T09:22:02.245Z,3.58
2023-08-17T09:24:37.631Z,3.08
2023-08-17T09:27:10.755Z,3.40
2023-08-17T09:29:39.450Z,3.55
2023-08-17T09:32:07.766Z,4.00
2023-08-17T09:34:35.303Z,4.10
2023-08-17T09:37:05.999Z,4.05
2023-08-17T09:39:33.808Z,3.87
2023-08-17T09:42:02.797Z,4.07
2023-08-17T09:44:30.478Z,3.83
2023-08-17T09:46:58.230Z,4.13
2023-08-17T09:49:26.511Z,4.60
2023-08-17T09:51:54.528Z,4.57
2023-08-17T09:54:23.800Z,4.78
2023-08-17T09:56:52.247Z,4.70
2023-08-17T09:59:21.645Z,4.28
2023-08-17T10:01:56.685Z,4.03
2023-08-17T10:04:25.632Z,4.43
2023-08-17T10:06:59.370Z,3.75
2023-08-17T10:09:27.726Z,3.85
2023-08-17T10:12:02.570Z,3.53
2023-08-17T10:14:35.459Z,4.13
2023-08-17T10:17:03.825Z,3.20
2023-08-17T10:19:36.784Z,3.47
2023-08-17T10:22:10.527Z,3.55
2023-08-17T10:24:39.383Z,3.50
2023-08-17T10:27:07.848Z,3.75
2023-08-17T10:29:36.820Z,3.22
2023-08-17T10:32:04.546Z,3.35
2023-08-17T10:34:32.341Z,3.35
2023-08-17T10:37:01.237Z,3.38
2023-08-17T10:39:30.132Z,3.22
2023-08-17T10:41:58.818Z,2.50
2023-08-17T10:44:44.751Z,3.05
2023-08-17T10:47:22.496Z,2.85
2023-08-17T10:49:51.001Z,3.30
2023-08-17T10:52:27.471Z,3.15
2023-08-17T10:54:55.753Z,3.13
2023-08-17T10:57:30.141Z,3.65
2023-08-17T11:00:09.713Z,2.78
2023-08-17T11:02:37.484Z,3.28
2023-08-17T11:05:06.002Z,3.05
2023-08-17T11:07:41.271Z,3.60
2023-08-17T11:10:13.923Z,3.42
2023-08-17T11:12:43.649Z,3.70
2023-08-17T11:15:12.848Z,3.60
2023-08-17T11:17:40.353Z,3.53
2023-08-17T11:20:15.272Z,3.33
2023-08-17T11:22:43.146Z,3.75
2023-08-17T11:25:09.783Z,3.78
2023-08-17T11:27:38.935Z,4.18
2023-08-17T11:30:09.087Z,3.47
2023-08-17T11:32:37.952Z,3.35
2023-08-17T11:35:05.935Z,3.38
2023-08-17T11:37:33.900Z,3.88
2023-08-17T11:40:01.402Z,4.20
2023-08-17T11:42:29.131Z,3.78
2023-08-17T11:44:57.085Z,3.75
2023-08-17T11:47:24.562Z,3.78
2023-08-17T11:49:54.810Z,4.03
2023-08-17T11:52:28.433Z,3.95
2023-08-17T11:54:56.830Z,4.03
2023-08-17T11:57:24.294Z,4.18
2023-08-17T11:59:55.116Z,3.95
2023-08-17T12:02:23.589Z,3.70
2023-08-17T12:04:51.175Z,4.38
2023-08-17T12:07:20.322Z,4.07
2023-08-17T12:09:48.473Z,4.22
2023-08-17T12:12:19.394Z,3.65
2023-08-17T12:14:48.936Z,4.30
2023-08-17T12:17:17.355Z,3.75
2023-08-17T12:19:45.142Z,4.10
2023-08-17T12:22:14.877Z,3.70
2023-08-17T12:24:45.002Z,3.88
2023-08-17T12:27:12.699Z,3.80
2023-08-17T12:29:48.307Z,4.10
2023-08-17T12:32:16.422Z,4.30
2023-08-17T12:34:44.165Z,4.43
2023-08-17T12:37:11.878Z,4.15
2023-08-17T12:39:39.807Z,3.72
2023-08-17T12:42:12.412Z,3.78
2023-08-17T12:44:40.233Z,4.38
2023-08-17T12:47:07.788Z,4.07
2023-08-17T12:49:39.436Z,4.05
2023-08-17T12:52:07.504Z,4.13
2023-08-17T12:54:34.996Z,4.30
2023-08-17T12:57:05.714Z,4.57
2023-08-17T12:59:37.008Z,4.38
2023-08-17T13:02:04.865Z,4.65
2023-08-17T13:04:32.384Z,4.32
2023-08-17T13:06:59.816Z,4.38
2023-08-17T13:09:27.252Z,4.35
2023-08-17T13:11:54.762Z,5.07
2023-08-17T13:14:23.822Z,5.75
2023-08-17T13:16:52.773Z,4.90
2023-08-17T13:19:20.497Z,5.13
2023-08-17T13:21:48.033Z,4.63
2023-08-17T13:24:15.694Z,4.80
2023-08-17T13:26:43.824Z,5.50
2023-08-17T13:29:12.962Z,5.13
2023-08-17T13:31:40.650Z,5.38
2023-08-17T13:34:09.572Z,5.50
2023-08-17T13:36:38.166Z,5.13
2023-08-17T13:39:07.204Z,6.10
2023-08-17T13:41:34.712Z,5.43
2023-08-17T13:44:03.581Z,5.50
2023-08-17T13:46:31.136Z,4.95
2023-08-17T13:48:58.756Z,5.15
2023-08-17T13:51:27.720Z,4.95
2023-08-17T13:53:55.208Z,5.45
2023-08-17T13:56:22.666Z,5.63
2023-08-17T13:58:50.311Z,5.50
2023-08-17T14:01:18.112Z,5.20
2023-08-17T14:03:45.656Z,5.70
2023-08-17T14:06:13.313Z,5.47
2023-08-17T14:08:42.113Z,5.22
2023-08-17T14:11:10.345Z,5.65
2023-08-17T14:13:39.096Z,5.03
2023-08-17T14:16:07.060Z,5.55
2023-08-17T14:18:34.786Z,4.63
2023-08-17T14:21:02.264Z,4.85
2023-08-17T14:23:29.820Z,4.53
2023-08-17T14:25:58.651Z,5.00
2023-08-17T14:28:27.500Z,4.53
2023-08-17T14:30:54.954Z,4.90
2023-08-17T14:33:22.505Z,5.07
2023-08-17T14:35:50.527Z,4.47
2023-08-17T14:38:18.131Z,5.10
2023-08-17T14:40:46.857Z,5.25
2023-08-17T14:43:16.185Z,4.90
2023-08-17T14:45:44.129Z,5.03
2023-08-17T14:48:12.023Z,4.78
2023-08-17T14:50:39.848Z,4.18
2023-08-17T14:53:07.632Z,4.65
2023-08-17T14:55:35.381Z,4.60
2023-08-17T14:58:03.500Z,4.63
2023-08-17T15:00:34.252Z,4.60
2023-08-17T15:03:02.444Z,4.57
2023-08-17T15:05:30.325Z,4.40
2023-08-17T15:07:57.779Z,4.15
2023-08-17T15:10:25.943Z,4.28
2023-08-17T15:12:53.536Z,4.85
2023-08-17T15:15:21.627Z,4.68
2023-08-17T15:17:50.510Z,4.57
2023-08-17T15:20:17.985Z,4.50
2023-08-17T15:22:45.548Z,4.00
2023-08-17T15:25:13.067Z,4.28
2023-08-17T15:27:40.631Z,3.97
2023-08-17T15:30:09.484Z,4.10
2023-08-17T15:32:37.100Z,3.78
2023-08-17T15:35:07.017Z,3.55
2023-08-17T15:37:35.659Z,4.05
2023-08-17T15:40:03.182Z,4.30
2023-08-17T15:42:30.707Z,4.03
2023-08-17T15:44:58.138Z,4.38
2023-08-17T15:47:26.177Z,3.92
2023-08-17T15:49:53.885Z,4.00
2023-08-17T15:52:22.760Z,3.60
2023-08-17T15:54:50.296Z,4.35
2023-08-17T15:57:17.807Z,3.92
2023-08-17T15:59:45.287Z,3.72
2023-08-17T16:02:12.913Z,4.10
2023-08-17T16:04:40.417Z,4.22
2023-08-17T16:07:07.916Z,3.90
2023-08-17T16:09:36.841Z,4.00
2023-08-17T16:12:04.482Z,4.07
2023-08-17T16:14:31.943Z,3.97
2023-08-17T16:17:01.595Z,3.80
2023-08-17T16:19:29.322Z,3.90
2023-08-17T16:21:56.838Z,4.00
2023-08-17T16:24:27.450Z,4.28
2023-08-17T16:26:56.809Z,4.28
2023-08-17T16:29:24.317Z,3.67
2023-08-17T16:32:09.199Z,4.22
2023-08-17T16:34:37.241Z,3.88
2023-08-17T16:37:04.925Z,4.10
2023-08-17T16:39:32.440Z,3.97
2023-08-17T16:42:01.299Z,4.38
2023-08-17T16:44:28.914Z,3.67
2023-08-17T16:46:56.920Z,3.63
2023-08-17T16:49:29.626Z,4.20
2023-08-17T16:51:57.568Z,4.10
2023-08-17T16:54:25.110Z,3.63
2023-08-17T16:56:54.174Z,3.42
2023-08-17T16:59:23.291Z,3.95
2023-08-17T17:01:51.206Z,3.53
2023-08-17T17:04:19.106Z,4.05
2023-08-17T17:06:46.764Z,3.92
2023-08-17T17:09:14.400Z,3.83
2023-08-17T17:11:41.856Z,4.28
2023-08-17T17:14:09.536Z,4.13
2023-08-17T17:16:38.432Z,3.92
2023-08-17T17:19:06.174Z,3.92
2023-08-17T17:21:34.345Z,4.35
2023-08-17T17:24:01.942Z,3.90
2023-08-17T17:26:29.555Z,3.50
2023-08-17T17:28:57.191Z,4.32
2023-08-17T17:31:24.728Z,4.40
2023-08-17T17:33:53.661Z,4.10
2023-08-17T17:36:21.163Z,4.05
2023-08-17T17:38:48.800Z,4.20
2023-08-17T17:41:16.391Z,4.18
2023-08-17T17:43:43.867Z,4.20
2023-08-17T17:46:11.513Z,5.10
2023-08-17T17:48:39.182Z,4.15
2023-08-17T17:51:07.960Z,4.07
2023-08-17T17:53:35.570Z,3.92
2023-08-17T17:56:03.031Z,4.40
2023-08-17T17:58:31.195Z,4.32
2023-08-17T18:00:58.936Z,4.20
2023-08-17T18:03:28.967Z,4.25
2023-08-17T18:05:56.601Z,4.10
2023-08-17T18:08:25.611Z,3.85
2023-08-17T18:10:53.151Z,3.88
2023-08-17T18:13:20.901Z,4.10
2023-08-17T18:15:48.587Z,4.20
2023-08-17T18:18:16.081Z,3.85
2023-08-17T18:20:43.577Z,4.00
2023-08-17T18:23:11.248Z,4.15
2023-08-17T18:25:40.216Z,4.03
2023-08-17T18:28:17.529Z,3.85
2023-08-17T18:30:45.964Z,3.90
2023-08-17T18:33:13.640Z,4.35
2023-08-17T18:35:41.103Z,4.03
2023-08-17T18:38:08.788Z,4.10
2023-08-17T18:40:36.893Z,3.92
2023-08-17T18:43:06.102Z,3.88
2023-08-17T18:45:33.791Z,4.18
2023-08-17T18:48:01.446Z,4.18
2023-08-17T18:50:30.967Z,4.00
2023-08-17T18:52:59.475Z,4.53
2023-08-17T18:55:28.656Z,3.97
2023-08-17T18:57:57.330Z,4.03
2023-08-17T19:00:26.405Z,4.50
2023-08-17T19:02:53.961Z,4.03
2023-08-17T19:05:21.734Z,4.72
2023-08-17T19:07:49.184Z,4.22
2023-08-17T19:10:16.868Z,4.60
2023-08-17T19:12:44.766Z,4.22
2023-08-17T19:15:12.653Z,4.40
2023-08-17T19:17:41.722Z,4.45
2023-08-17T19:20:10.133Z,4.50
2023-08-17T19:22:38.040Z,4.50
2023-08-17T19:25:06.268Z,4.50
2023-08-17T19:27:35.894Z,4.55
2023-08-17T19:30:03.442Z,4.80
2023-08-17T19:32:31.249Z,4.38
2023-08-17T19:35:00.102Z,4.32
2023-08-17T19:37:29.203Z,4.60
2023-08-17T19:39:58.804Z,4.20
2023-08-17T19:42:35.435Z,3.95
2023-08-17T19:45:03.456Z,3.47
2023-08-17T19:47:31.269Z,3.70
2023-08-17T19:50:00.322Z,3.92
2023-08-17T19:52:28.036Z,3.67
2023-08-17T19:54:55.523Z,3.40
2023-08-17T19:57:23.517Z,3.00
2023-08-17T19:59:51.281Z,2.70
2023-08-17T20:02:19.035Z,3.05
2023-08-17T20:04:46.698Z,3.10
2023-08-17T20:07:15.647Z,3.40
2023-08-17T20:09:43.271Z,3.35
2023-08-17T20:12:10.740Z,3.50
2023-08-17T20:14:39.708Z,3.40
2023-08-17T20:17:07.359Z,3.38
2023-08-17T20:19:35.484Z,3.47
2023-08-17T20:22:03.080Z,4.05
2023-08-17T20:24:33.589Z,3.50
2023-08-17T20:27:01.283Z,3.70
2023-08-17T20:29:28.794Z,3.67
2023-08-17T20:31:57.071Z,3.83
2023-08-17T20:34:24.935Z,4.18
2023-08-17T20:36:52.802Z,4.00
2023-08-17T20:39:20.292Z,3.97
2023-08-17T20:41:49.266Z,4.22
2023-08-17T20:44:16.939Z,4.57
2023-08-17T20:46:44.561Z,4.43
2023-08-17T20:49:12.004Z,4.32
2023-08-17T20:51:41.906Z,4.32
2023-08-17T20:54:11.671Z,4.35
2023-08-17T20:56:39.169Z,4.32
2023-08-17T20:59:07.975Z,4.47
2023-08-17T21:01:35.572Z,4.47
2023-08-17T21:04:03.153Z,4.70
2023-08-17T21:06:30.635Z,5.25
2023-08-17T21:08:58.194Z,5.22
2023-08-17T21:11:25.681Z,4.68
2023-08-17T21:13:53.181Z,4.13
2023-08-17T21:16:22.006Z,4.78
2023-08-17T21:18:49.493Z,4.65
2023-08-17T21:21:17.000Z,4.47
2023-08-17T21:23:45.168Z,4.30
2023-08-17T21:26:13.326Z,4.63
2023-08-17T21:28:40.798Z,5.20
2023-08-17T21:31:08.342Z,6.05
2023-08-17T21:33:37.166Z,5.57
2023-08-17T21:36:05.301Z,5.30
2023-08-17T21:38:32.769Z,5.07
2023-08-17T21:41:00.748Z,4.60
2023-08-17T21:43:28.780Z,4.90
2023-08-17T21:45:56.955Z,4.85
2023-08-17T21:48:25.032Z,5.85
2023-08-17T21:50:53.904Z,5.18
2023-08-17T21:53:22.298Z,5.18
2023-08-17T21:55:50.765Z,5.30
2023-08-17T21:58:18.661Z,5.88
2023-08-17T22:00:47.036Z,6.00
2023-08-17T22:03:15.569Z,6.07
2023-08-17T22:05:47.144Z,5.57
2023-08-17T22:08:16.495Z,6.13
2023-08-17T22:10:44.661Z,5.55
2023-08-17T22:13:12.402Z,5.95
2023-08-17T22:15:40.122Z,6.72
2023-08-17T22:18:07.798Z,6.30
2023-08-17T22:20:36.089Z,6.40
2023-08-17T22:23:03.716Z,5.72
2023-08-17T22:25:32.576Z,5.68
2023-08-17T22:28:00.091Z,6.20
2023-08-17T22:30:28.173Z,5.50
2023-08-17T22:32:55.842Z,5.30
2023-08-17T22:35:23.363Z,5.95
2023-08-17T22:37:50.919Z,6.50
2023-08-17T22:40:18.655Z,6.50
2023-08-17T22:42:47.431Z,6.50
2023-08-17T22:45:15.067Z,6.90
2023-08-17T22:47:42.652Z,6.78
2023-08-17T22:50:11.536Z,6.78
2023-08-17T22:52:39.500Z,6.90
2023-08-17T22:55:07.627Z,7.40
2023-08-17T22:57:35.132Z,6.90
2023-08-17T23:00:04.841Z,7.03
2023-08-17T23:02:32.490Z,6.82
2023-08-17T23:05:00.166Z,6.80
2023-08-17T23:07:27.974Z,6.88
2023-08-17T23:09:55.705Z,6.90
2023-08-17T23:12:24.373Z,6.90
2023-08-17T23:14:51.868Z,6.93
2023-08-17T23:17:20.733Z,7.82
2023-08-17T23:19:48.224Z,6.68
2023-08-17T23:22:15.688Z,6.78
2023-08-17T23:24:43.195Z,7.13
2023-08-17T23:27:11.090Z,7.47
2023-08-17T23:29:40.482Z,6.53
2023-08-17T23:32:21.024Z,6.03
2023-08-17T23:34:53.995Z,6.00
2023-08-17T23:37:21.517Z,6.40
2023-08-17T23:39:48.991Z,5.95
2023-08-17T23:42:16.514Z,5.40
2023-08-17T23:44:44.309Z,5.95
2023-08-17T23:47:11.906Z,5.78
2023-08-17T23:49:41.179Z,5.35
2023-08-17T23:52:10.331Z,5.03
2023-08-17T23:54:37.826Z,5.25
2023-08-17T23:57:05.725Z,5.32
2023-08-17T23:59:33.189Z,5.38
